sensor_id;sensor_type;location;lat;lon;timestamp;P1;durP1;ratioP1;P2;durP2;ratioP2
15082;SDS011;7640;53.116;6.878;2023-04-25T00:01:35;15.00;;;6.07;;
15082;SDS011;7640;53.116;6.878;2023-04-25T00:04:05;27.77;;;6.20;;
15082;SDS011;7640;53.116;6.878;2023-04-25T00:06:36;18.40;;;6.83;;
15082;SDS011;7640;53.116;6.878;2023-04-25T00:09:08;19.87;;;6.20;;
15082;SDS011;7640;53.116;6.878;2023-04-25T00:11:39;20.43;;;6.50;;
15082;SDS011;7640;53.116;6.878;2023-04-25T00:14:10;21.10;;;5.93;;
15082;SDS011;7640;53.116;6.878;2023-04-25T00:16:42;17.17;;;5.77;;
15082;SDS011;7640;53.116;6.878;2023-04-25T00:19:14;24.73;;;5.67;;
15082;SDS011;7640;53.116;6.878;2023-04-25T00:21:44;18.23;;;5.50;;
15082;SDS011;7640;53.116;6.878;2023-04-25T00:24:15;24.20;;;7.77;;
15082;SDS011;7640;53.116;6.878;2023-04-25T00:26:46;16.93;;;6.40;;
15082;SDS011;7640;53.116;6.878;2023-04-25T00:29:17;21.43;;;5.93;;
15082;SDS011;7640;53.116;6.878;2023-04-25T00:31:49;21.67;;;5.97;;
15082;SDS011;7640;53.116;6.878;2023-04-25T00:34:19;22.97;;;5.77;;
15082;SDS011;7640;53.116;6.878;2023-04-25T00:36:48;19.30;;;6.03;;
15082;SDS011;7640;53.116;6.878;2023-04-25T00:39:23;20.07;;;5.63;;
15082;SDS011;7640;53.116;6.878;2023-04-25T00:41:56;18.43;;;5.90;;
15082;SDS011;7640;53.116;6.878;2023-04-25T00:44:29;21.00;;;5.67;;
15082;SDS011;7640;53.116;6.878;2023-04-25T00:47:04;19.37;;;5.87;;
15082;SDS011;7640;53.116;6.878;2023-04-25T00:49:34;20.93;;;5.20;;
15082;SDS011;7640;53.116;6.878;2023-04-25T00:52:03;20.60;;;5.53;;
15082;SDS011;7640;53.116;6.878;2023-04-25T00:54:34;16.10;;;5.07;;
15082;SDS011;7640;53.116;6.878;2023-04-25T00:57:06;15.53;;;4.60;;
15082;SDS011;7640;53.116;6.878;2023-04-25T00:59:38;12.20;;;4.53;;
15082;SDS011;7640;53.116;6.878;2023-04-25T01:02:12;11.93;;;4.17;;
15082;SDS011;7640;53.116;6.878;2023-04-25T01:04:42;11.43;;;3.50;;
15082;SDS011;7640;53.116;6.878;2023-04-25T01:07:11;11.43;;;4.30;;
15082;SDS011;7640;53.116;6.878;2023-04-25T01:09:51;13.97;;;4.10;;
15082;SDS011;7640;53.116;6.878;2023-04-25T01:12:23;14.67;;;4.27;;
15082;SDS011;7640;53.116;6.878;2023-04-25T01:14:53;18.03;;;4.90;;
15082;SDS011;7640;53.116;6.878;2023-04-25T01:17:23;9.30;;;3.83;;
15082;SDS011;7640;53.116;6.878;2023-04-25T01:19:56;12.33;;;3.70;;
15082;SDS011;7640;53.116;6.878;2023-04-25T01:22:29;21.10;;;4.30;;
15082;SDS011;7640;53.116;6.878;2023-04-25T01:25:01;17.27;;;3.93;;
15082;SDS011;7640;53.116;6.878;2023-04-25T01:27:32;14.30;;;4.23;;
15082;SDS011;7640;53.116;6.878;2023-04-25T01:30:03;15.40;;;4.20;;
15082;SDS011;7640;53.116;6.878;2023-04-25T01:32:34;13.43;;;3.57;;
15082;SDS011;7640;53.116;6.878;2023-04-25T01:35:07;18.33;;;4.27;;
15082;SDS011;7640;53.116;6.878;2023-04-25T01:37:41;12.47;;;3.63;;
15082;SDS011;7640;53.116;6.878;2023-04-25T01:40:15;16.40;;;3.80;;
15082;SDS011;7640;53.116;6.878;2023-04-25T01:42:48;17.27;;;3.50;;
15082;SDS011;7640;53.116;6.878;2023-04-25T01:45:26;20.73;;;3.77;;
15082;SDS011;7640;53.116;6.878;2023-04-25T01:48:00;12.20;;;3.30;;
15082;SDS011;7640;53.116;6.878;2023-04-25T01:50:40;8.47;;;3.30;;
15082;SDS011;7640;53.116;6.878;2023-04-25T01:53:15;10.83;;;2.90;;
15082;SDS011;7640;53.116;6.878;2023-04-25T01:55:45;11.67;;;3.67;;
15082;SDS011;7640;53.116;6.878;2023-04-25T01:58:14;10.73;;;4.10;;
15082;SDS011;7640;53.116;6.878;2023-04-25T02:00:44;10.73;;;3.30;;
15082;SDS011;7640;53.116;6.878;2023-04-25T02:03:17;13.97;;;4.37;;
15082;SDS011;7640;53.116;6.878;2023-04-25T02:05:51;14.33;;;3.77;;
15082;SDS011;7640;53.116;6.878;2023-04-25T02:08:27;12.23;;;3.50;;
15082;SDS011;7640;53.116;6.878;2023-04-25T02:11:01;15.60;;;4.03;;
15082;SDS011;7640;53.116;6.878;2023-04-25T02:13:35;20.37;;;3.67;;
15082;SDS011;7640;53.116;6.878;2023-04-25T02:16:06;13.30;;;3.27;;
15082;SDS011;7640;53.116;6.878;2023-04-25T02:18:36;11.37;;;3.17;;
15082;SDS011;7640;53.116;6.878;2023-04-25T02:21:08;12.30;;;3.30;;
15082;SDS011;7640;53.116;6.878;2023-04-25T02:23:38;10.77;;;3.07;;
15082;SDS011;7640;53.116;6.878;2023-04-25T02:26:08;12.57;;;3.63;;
15082;SDS011;7640;53.116;6.878;2023-04-25T02:28:40;14.60;;;4.00;;
15082;SDS011;7640;53.116;6.878;2023-04-25T02:31:14;11.00;;;3.23;;
15082;SDS011;7640;53.116;6.878;2023-04-25T02:33:47;9.63;;;3.73;;
15082;SDS011;7640;53.116;6.878;2023-04-25T02:36:17;15.57;;;4.03;;
15082;SDS011;7640;53.116;6.878;2023-04-25T02:38:53;15.43;;;4.37;;
15082;SDS011;7640;53.116;6.878;2023-04-25T02:41:24;13.30;;;3.90;;
15082;SDS011;7640;53.116;6.878;2023-04-25T02:44:07;15.43;;;3.77;;
15082;SDS011;7640;53.116;6.878;2023-04-25T02:46:39;15.20;;;4.57;;
15082;SDS011;7640;53.116;6.878;2023-04-25T02:49:09;18.57;;;4.03;;
15082;SDS011;7640;53.116;6.878;2023-04-25T02:51:38;11.13;;;3.50;;
15082;SDS011;7640;53.116;6.878;2023-04-25T02:54:16;25.17;;;5.13;;
15082;SDS011;7640;53.116;6.878;2023-04-25T02:56:51;12.73;;;3.50;;
15082;SDS011;7640;53.116;6.878;2023-04-25T02:59:23;16.90;;;3.63;;
15082;SDS011;7640;53.116;6.878;2023-04-25T03:01:58;12.23;;;3.50;;
15082;SDS011;7640;53.116;6.878;2023-04-25T03:04:27;14.20;;;3.80;;
15082;SDS011;7640;53.116;6.878;2023-04-25T03:07:00;8.83;;;3.60;;
15082;SDS011;7640;53.116;6.878;2023-04-25T03:09:40;9.77;;;3.50;;
15082;SDS011;7640;53.116;6.878;2023-04-25T03:12:12;14.43;;;3.40;;
15082;SDS011;7640;53.116;6.878;2023-04-25T03:14:41;16.00;;;3.60;;
15082;SDS011;7640;53.116;6.878;2023-04-25T03:17:10;13.53;;;3.27;;
15082;SDS011;7640;53.116;6.878;2023-04-25T03:19:41;14.33;;;3.83;;
15082;SDS011;7640;53.116;6.878;2023-04-25T03:22:13;13.13;;;3.27;;
15082;SDS011;7640;53.116;6.878;2023-04-25T03:24:44;12.13;;;4.17;;
15082;SDS011;7640;53.116;6.878;2023-04-25T03:27:14;12.63;;;3.43;;
15082;SDS011;7640;53.116;6.878;2023-04-25T03:29:47;15.53;;;3.33;;
15082;SDS011;7640;53.116;6.878;2023-04-25T03:32:17;9.13;;;3.27;;
15082;SDS011;7640;53.116;6.878;2023-04-25T03:34:49;15.97;;;3.53;;
15082;SDS011;7640;53.116;6.878;2023-04-25T03:37:21;14.50;;;3.30;;
15082;SDS011;7640;53.116;6.878;2023-04-25T03:39:56;6.97;;;3.13;;
15082;SDS011;7640;53.116;6.878;2023-04-25T03:42:28;12.27;;;3.60;;
15082;SDS011;7640;53.116;6.878;2023-04-25T03:44:57;9.53;;;3.50;;
15082;SDS011;7640;53.116;6.878;2023-04-25T03:47:27;13.73;;;3.17;;
15082;SDS011;7640;53.116;6.878;2023-04-25T03:49:57;15.90;;;3.80;;
15082;SDS011;7640;53.116;6.878;2023-04-25T03:52:28;13.10;;;3.87;;
15082;SDS011;7640;53.116;6.878;2023-04-25T03:55:00;13.80;;;3.63;;
15082;SDS011;7640;53.116;6.878;2023-04-25T03:57:31;13.87;;;3.50;;
15082;SDS011;7640;53.116;6.878;2023-04-25T04:00:01;10.67;;;3.23;;
15082;SDS011;7640;53.116;6.878;2023-04-25T04:02:35;13.97;;;3.57;;
15082;SDS011;7640;53.116;6.878;2023-04-25T04:05:07;14.33;;;3.33;;
15082;SDS011;7640;53.116;6.878;2023-04-25T04:07:38;15.33;;;3.90;;
15082;SDS011;7640;53.116;6.878;2023-04-25T04:10:10;13.50;;;3.70;;
15082;SDS011;7640;53.116;6.878;2023-04-25T04:12:41;12.80;;;3.70;;
15082;SDS011;7640;53.116;6.878;2023-04-25T04:15:11;16.80;;;3.87;;
15082;SDS011;7640;53.116;6.878;2023-04-25T04:17:44;12.33;;;3.30;;
15082;SDS011;7640;53.116;6.878;2023-04-25T04:20:16;10.10;;;3.20;;
15082;SDS011;7640;53.116;6.878;2023-04-25T04:22:53;11.60;;;3.10;;
15082;SDS011;7640;53.116;6.878;2023-04-25T04:25:24;11.13;;;2.80;;
15082;SDS011;7640;53.116;6.878;2023-04-25T04:27:58;11.80;;;3.07;;
15082;SDS011;7640;53.116;6.878;2023-04-25T04:30:28;14.03;;;2.73;;
15082;SDS011;7640;53.116;6.878;2023-04-25T04:32:58;11.87;;;2.90;;
15082;SDS011;7640;53.116;6.878;2023-04-25T04:35:31;17.63;;;3.40;;
15082;SDS011;7640;53.116;6.878;2023-04-25T04:38:00;12.10;;;2.90;;
15082;SDS011;7640;53.116;6.878;2023-04-25T04:40:32;10.43;;;3.33;;
15082;SDS011;7640;53.116;6.878;2023-04-25T04:43:01;8.63;;;2.53;;
15082;SDS011;7640;53.116;6.878;2023-04-25T04:45:35;13.90;;;3.13;;
15082;SDS011;7640;53.116;6.878;2023-04-25T04:48:06;6.90;;;2.90;;
15082;SDS011;7640;53.116;6.878;2023-04-25T04:50:38;20.83;;;4.73;;
15082;SDS011;7640;53.116;6.878;2023-04-25T04:53:07;9.33;;;2.73;;
15082;SDS011;7640;53.116;6.878;2023-04-25T04:55:38;10.93;;;3.03;;
15082;SDS011;7640;53.116;6.878;2023-04-25T04:58:09;12.27;;;3.60;;
15082;SDS011;7640;53.116;6.878;2023-04-25T05:00:38;9.00;;;3.30;;
15082;SDS011;7640;53.116;6.878;2023-04-25T05:03:08;14.37;;;3.60;;
15082;SDS011;7640;53.116;6.878;2023-04-25T05:05:38;13.63;;;3.50;;
15082;SDS011;7640;53.116;6.878;2023-04-25T05:08:07;17.43;;;4.10;;
15082;SDS011;7640;53.116;6.878;2023-04-25T05:10:46;13.33;;;3.30;;
15082;SDS011;7640;53.116;6.878;2023-04-25T05:13:16;13.10;;;3.63;;
15082;SDS011;7640;53.116;6.878;2023-04-25T05:15:53;12.03;;;3.63;;
15082;SDS011;7640;53.116;6.878;2023-04-25T05:18:22;10.87;;;3.07;;
15082;SDS011;7640;53.116;6.878;2023-04-25T05:20:54;13.83;;;3.37;;
15082;SDS011;7640;53.116;6.878;2023-04-25T05:23:23;14.17;;;3.50;;
15082;SDS011;7640;53.116;6.878;2023-04-25T05:26:00;11.80;;;3.67;;
15082;SDS011;7640;53.116;6.878;2023-04-25T05:28:30;9.30;;;3.20;;
15082;SDS011;7640;53.116;6.878;2023-04-25T05:31:01;15.77;;;3.60;;
15082;SDS011;7640;53.116;6.878;2023-04-25T05:33:33;12.23;;;3.30;;
15082;SDS011;7640;53.116;6.878;2023-04-25T05:36:04;12.03;;;3.20;;
15082;SDS011;7640;53.116;6.878;2023-04-25T05:38:34;5.80;;;2.17;;
15082;SDS011;7640;53.116;6.878;2023-04-25T05:41:05;6.03;;;2.40;;
15082;SDS011;7640;53.116;6.878;2023-04-25T05:43:36;4.90;;;1.80;;
15082;SDS011;7640;53.116;6.878;2023-04-25T05:46:06;6.07;;;2.17;;
15082;SDS011;7640;53.116;6.878;2023-04-25T05:48:37;5.43;;;2.07;;
15082;SDS011;7640;53.116;6.878;2023-04-25T05:51:11;6.47;;;2.00;;
15082;SDS011;7640;53.116;6.878;2023-04-25T05:53:41;10.03;;;2.20;;
15082;SDS011;7640;53.116;6.878;2023-04-25T05:56:12;9.63;;;2.73;;
15082;SDS011;7640;53.116;6.878;2023-04-25T05:58:43;5.47;;;2.13;;
15082;SDS011;7640;53.116;6.878;2023-04-25T06:01:12;3.90;;;1.70;;
15082;SDS011;7640;53.116;6.878;2023-04-25T06:03:43;5.80;;;2.20;;
15082;SDS011;7640;53.116;6.878;2023-04-25T06:06:13;4.93;;;1.73;;
15082;SDS011;7640;53.116;6.878;2023-04-25T06:08:43;5.73;;;2.17;;
15082;SDS011;7640;53.116;6.878;2023-04-25T06:11:14;5.10;;;2.10;;
15082;SDS011;7640;53.116;6.878;2023-04-25T06:13:45;6.23;;;1.80;;
15082;SDS011;7640;53.116;6.878;2023-04-25T06:16:15;10.33;;;2.30;;
15082;SDS011;7640;53.116;6.878;2023-04-25T06:18:46;6.77;;;2.30;;
15082;SDS011;7640;53.116;6.878;2023-04-25T06:21:16;9.40;;;2.30;;
15082;SDS011;7640;53.116;6.878;2023-04-25T06:23:46;10.13;;;2.37;;
15082;SDS011;7640;53.116;6.878;2023-04-25T06:26:18;6.27;;;1.80;;
15082;SDS011;7640;53.116;6.878;2023-04-25T06:28:47;6.90;;;2.17;;
15082;SDS011;7640;53.116;6.878;2023-04-25T06:31:17;5.37;;;2.23;;
15082;SDS011;7640;53.116;6.878;2023-04-25T06:33:49;3.03;;;1.80;;
15082;SDS011;7640;53.116;6.878;2023-04-25T06:36:23;6.20;;;2.07;;
15082;SDS011;7640;53.116;6.878;2023-04-25T06:38:54;7.73;;;2.07;;
15082;SDS011;7640;53.116;6.878;2023-04-25T06:41:25;8.60;;;2.70;;
15082;SDS011;7640;53.116;6.878;2023-04-25T06:43:55;10.53;;;2.23;;
15082;SDS011;7640;53.116;6.878;2023-04-25T06:46:25;7.20;;;2.33;;
15082;SDS011;7640;53.116;6.878;2023-04-25T06:48:55;10.93;;;2.90;;
15082;SDS011;7640;53.116;6.878;2023-04-25T06:51:27;7.40;;;2.27;;
15082;SDS011;7640;53.116;6.878;2023-04-25T06:53:57;7.37;;;2.93;;
15082;SDS011;7640;53.116;6.878;2023-04-25T06:56:30;8.33;;;3.33;;
15082;SDS011;7640;53.116;6.878;2023-04-25T06:59:00;4.57;;;2.03;;
15082;SDS011;7640;53.116;6.878;2023-04-25T07:01:29;6.17;;;2.20;;
15082;SDS011;7640;53.116;6.878;2023-04-25T07:03:59;9.90;;;2.37;;
15082;SDS011;7640;53.116;6.878;2023-04-25T07:06:30;8.80;;;2.50;;
15082;SDS011;7640;53.116;6.878;2023-04-25T07:08:59;10.10;;;2.50;;
15082;SDS011;7640;53.116;6.878;2023-04-25T07:11:30;15.87;;;2.63;;
15082;SDS011;7640;53.116;6.878;2023-04-25T07:13:59;10.90;;;2.27;;
15082;SDS011;7640;53.116;6.878;2023-04-25T07:16:31;6.97;;;2.20;;
15082;SDS011;7640;53.116;6.878;2023-04-25T07:19:01;7.80;;;1.83;;
15082;SDS011;7640;53.116;6.878;2023-04-25T07:21:32;9.47;;;1.90;;
15082;SDS011;7640;53.116;6.878;2023-04-25T07:24:04;9.17;;;1.90;;
15082;SDS011;7640;53.116;6.878;2023-04-25T07:26:35;8.07;;;1.50;;
15082;SDS011;7640;53.116;6.878;2023-04-25T07:29:04;5.73;;;1.40;;
15082;SDS011;7640;53.116;6.878;2023-04-25T07:31:34;6.63;;;2.20;;
15082;SDS011;7640;53.116;6.878;2023-04-25T07:34:03;8.37;;;1.80;;
15082;SDS011;7640;53.116;6.878;2023-04-25T07:36:33;8.07;;;1.70;;
15082;SDS011;7640;53.116;6.878;2023-04-25T07:39:02;3.47;;;1.47;;
15082;SDS011;7640;53.116;6.878;2023-04-25T07:41:32;6.57;;;1.80;;
15082;SDS011;7640;53.116;6.878;2023-04-25T07:44:04;7.30;;;1.90;;
15082;SDS011;7640;53.116;6.878;2023-04-25T07:46:33;6.07;;;1.37;;
15082;SDS011;7640;53.116;6.878;2023-04-25T07:49:09;7.73;;;1.70;;
15082;SDS011;7640;53.116;6.878;2023-04-25T07:51:41;6.40;;;1.63;;
15082;SDS011;7640;53.116;6.878;2023-04-25T07:54:12;9.67;;;1.90;;
15082;SDS011;7640;53.116;6.878;2023-04-25T07:56:48;9.73;;;1.67;;
15082;SDS011;7640;53.116;6.878;2023-04-25T07:59:24;5.80;;;1.70;;
15082;SDS011;7640;53.116;6.878;2023-04-25T08:01:56;8.07;;;1.90;;
15082;SDS011;7640;53.116;6.878;2023-04-25T08:04:27;5.73;;;1.90;;
15082;SDS011;7640;53.116;6.878;2023-04-25T08:06:56;6.37;;;1.97;;
15082;SDS011;7640;53.116;6.878;2023-04-25T08:09:25;7.53;;;1.80;;
15082;SDS011;7640;53.116;6.878;2023-04-25T08:11:56;7.13;;;1.40;;
15082;SDS011;7640;53.116;6.878;2023-04-25T08:14:29;5.13;;;1.60;;
15082;SDS011;7640;53.116;6.878;2023-04-25T08:17:02;5.10;;;2.03;;
15082;SDS011;7640;53.116;6.878;2023-04-25T08:19:38;3.97;;;1.20;;
15082;SDS011;7640;53.116;6.878;2023-04-25T08:22:07;6.37;;;1.70;;
15082;SDS011;7640;53.116;6.878;2023-04-25T08:24:37;6.03;;;1.60;;
15082;SDS011;7640;53.116;6.878;2023-04-25T08:27:11;6.63;;;1.73;;
15082;SDS011;7640;53.116;6.878;2023-04-25T08:29:41;5.10;;;1.87;;
15082;SDS011;7640;53.116;6.878;2023-04-25T08:32:11;6.37;;;1.77;;
15082;SDS011;7640;53.116;6.878;2023-04-25T08:34:45;8.47;;;1.90;;
15082;SDS011;7640;53.116;6.878;2023-04-25T08:37:29;12.07;;;2.13;;
15082;SDS011;7640;53.116;6.878;2023-04-25T08:40:03;3.63;;;1.20;;
15082;SDS011;7640;53.116;6.878;2023-04-25T08:42:36;5.40;;;1.70;;
15082;SDS011;7640;53.116;6.878;2023-04-25T08:45:09;4.70;;;1.20;;
15082;SDS011;7640;53.116;6.878;2023-04-25T08:47:39;5.33;;;1.27;;
15082;SDS011;7640;53.116;6.878;2023-04-25T08:50:10;5.90;;;1.30;;
15082;SDS011;7640;53.116;6.878;2023-04-25T08:52:41;2.93;;;1.20;;
15082;SDS011;7640;53.116;6.878;2023-04-25T08:55:12;3.57;;;1.33;;
15082;SDS011;7640;53.116;6.878;2023-04-25T08:57:43;2.77;;;1.03;;
15082;SDS011;7640;53.116;6.878;2023-04-25T09:00:17;2.83;;;1.20;;
15082;SDS011;7640;53.116;6.878;2023-04-25T09:02:49;2.47;;;1.20;;
15082;SDS011;7640;53.116;6.878;2023-04-25T09:05:19;3.33;;;1.20;;
15082;SDS011;7640;53.116;6.878;2023-04-25T09:07:51;7.07;;;2.13;;
15082;SDS011;7640;53.116;6.878;2023-04-25T09:10:20;3.20;;;1.50;;
15082;SDS011;7640;53.116;6.878;2023-04-25T09:13:01;4.00;;;1.80;;
15082;SDS011;7640;53.116;6.878;2023-04-25T09:15:34;3.17;;;1.10;;
15082;SDS011;7640;53.116;6.878;2023-04-25T09:18:22;3.03;;;1.10;;
15082;SDS011;7640;53.116;6.878;2023-04-25T09:20:58;2.67;;;1.50;;
15082;SDS011;7640;53.116;6.878;2023-04-25T09:23:41;4.60;;;1.47;;
15082;SDS011;7640;53.116;6.878;2023-04-25T09:26:14;4.40;;;1.50;;
15082;SDS011;7640;53.116;6.878;2023-04-25T09:28:47;4.53;;;1.40;;
15082;SDS011;7640;53.116;6.878;2023-04-25T09:31:24;6.70;;;1.70;;
15082;SDS011;7640;53.116;6.878;2023-04-25T09:33:58;5.87;;;2.10;;
15082;SDS011;7640;53.116;6.878;2023-04-25T09:36:29;6.30;;;1.40;;
15082;SDS011;7640;53.116;6.878;2023-04-25T09:38:59;7.67;;;1.90;;
15082;SDS011;7640;53.116;6.878;2023-04-25T09:41:30;5.83;;;1.87;;
15082;SDS011;7640;53.116;6.878;2023-04-25T09:44:00;6.20;;;1.70;;
15082;SDS011;7640;53.116;6.878;2023-04-25T09:46:34;5.87;;;1.90;;
15082;SDS011;7640;53.116;6.878;2023-04-25T09:49:06;7.63;;;1.80;;
15082;SDS011;7640;53.116;6.878;2023-04-25T09:51:35;7.60;;;1.70;;
15082;SDS011;7640;53.116;6.878;2023-04-25T09:54:08;9.07;;;1.50;;
15082;SDS011;7640;53.116;6.878;2023-04-25T09:56:39;5.30;;;1.80;;
15082;SDS011;7640;53.116;6.878;2023-04-25T09:59:16;5.77;;;1.70;;
15082;SDS011;7640;53.116;6.878;2023-04-25T10:01:50;2.70;;;1.40;;
15082;SDS011;7640;53.116;6.878;2023-04-25T10:04:24;7.90;;;2.13;;
15082;SDS011;7640;53.116;6.878;2023-04-25T10:06:59;3.73;;;1.40;;
15082;SDS011;7640;53.116;6.878;2023-04-25T10:09:32;5.43;;;1.20;;
15082;SDS011;7640;53.116;6.878;2023-04-25T10:12:07;7.47;;;1.60;;
15082;SDS011;7640;53.116;6.878;2023-04-25T10:14:40;7.57;;;1.50;;
15082;SDS011;7640;53.116;6.878;2023-04-25T10:17:12;7.23;;;2.07;;
15082;SDS011;7640;53.116;6.878;2023-04-25T10:19:51;7.17;;;2.10;;
15082;SDS011;7640;53.116;6.878;2023-04-25T10:22:24;7.30;;;1.93;;
15082;SDS011;7640;53.116;6.878;2023-04-25T10:25:04;4.47;;;1.60;;
15082;SDS011;7640;53.116;6.878;2023-04-25T10:27:41;6.37;;;1.93;;
15082;SDS011;7640;53.116;6.878;2023-04-25T10:30:14;6.40;;;1.47;;
15082;SDS011;7640;53.116;6.878;2023-04-25T10:32:46;2.60;;;1.17;;
15082;SDS011;7640;53.116;6.878;2023-04-25T10:35:17;6.60;;;1.67;;
15082;SDS011;7640;53.116;6.878;2023-04-25T10:37:57;5.63;;;1.47;;
15082;SDS011;7640;53.116;6.878;2023-04-25T10:40:30;4.63;;;1.33;;
15082;SDS011;7640;53.116;6.878;2023-04-25T10:46:14;6.13;;;1.83;;
15082;SDS011;7640;53.116;6.878;2023-04-25T10:48:48;3.73;;;1.40;;
15082;SDS011;7640;53.116;6.878;2023-04-25T10:51:20;5.83;;;1.37;;
15082;SDS011;7640;53.116;6.878;2023-04-25T10:53:58;3.07;;;1.50;;
15082;SDS011;7640;53.116;6.878;2023-04-25T10:56:30;3.47;;;1.50;;
15082;SDS011;7640;53.116;6.878;2023-04-25T10:59:12;3.67;;;1.47;;
15082;SDS011;7640;53.116;6.878;2023-04-25T11:01:44;6.70;;;1.50;;
15082;SDS011;7640;53.116;6.878;2023-04-25T11:04:23;6.17;;;1.80;;
15082;SDS011;7640;53.116;6.878;2023-04-25T11:07:07;5.07;;;1.83;;
15082;SDS011;7640;53.116;6.878;2023-04-25T11:09:49;7.13;;;1.53;;
15082;SDS011;7640;53.116;6.878;2023-04-25T11:12:26;3.93;;;1.67;;
15082;SDS011;7640;53.116;6.878;2023-04-25T11:15:00;4.87;;;2.40;;
15082;SDS011;7640;53.116;6.878;2023-04-25T11:17:33;7.33;;;1.80;;
15082;SDS011;7640;53.116;6.878;2023-04-25T11:20:35;7.63;;;1.93;;
15082;SDS011;7640;53.116;6.878;2023-04-25T11:23:22;5.73;;;1.60;;
15082;SDS011;7640;53.116;6.878;2023-04-25T11:26:06;4.23;;;1.27;;
15082;SDS011;7640;53.116;6.878;2023-04-25T11:28:40;3.47;;;1.33;;
15082;SDS011;7640;53.116;6.878;2023-04-25T11:31:32;6.30;;;1.57;;
15082;SDS011;7640;53.116;6.878;2023-04-25T11:34:30;4.57;;;1.77;;
15082;SDS011;7640;53.116;6.878;2023-04-25T11:37:24;4.70;;;1.97;;
15082;SDS011;7640;53.116;6.878;2023-04-25T11:40:10;6.73;;;1.60;;
15082;SDS011;7640;53.116;6.878;2023-04-25T11:42:45;5.20;;;1.70;;
15082;SDS011;7640;53.116;6.878;2023-04-25T11:45:25;3.70;;;1.30;;
15082;SDS011;7640;53.116;6.878;2023-04-25T11:48:22;3.90;;;1.37;;
15082;SDS011;7640;53.116;6.878;2023-04-25T11:51:15;5.17;;;1.70;;
15082;SDS011;7640;53.116;6.878;2023-04-25T11:54:16;5.13;;;1.57;;
15082;SDS011;7640;53.116;6.878;2023-04-25T11:57:01;5.97;;;1.50;;
15082;SDS011;7640;53.116;6.878;2023-04-25T11:59:37;3.40;;;1.53;;
15082;SDS011;7640;53.116;6.878;2023-04-25T12:02:23;4.97;;;1.50;;
15082;SDS011;7640;53.116;6.878;2023-04-25T12:05:02;4.90;;;1.13;;
15082;SDS011;7640;53.116;6.878;2023-04-25T12:07:55;6.57;;;1.57;;
15082;SDS011;7640;53.116;6.878;2023-04-25T12:10:28;6.87;;;1.43;;
15082;SDS011;7640;53.116;6.878;2023-04-25T12:12:58;3.33;;;1.40;;
15082;SDS011;7640;53.116;6.878;2023-04-25T12:15:30;4.50;;;1.50;;
15082;SDS011;7640;53.116;6.878;2023-04-25T12:18:05;3.47;;;1.53;;
15082;SDS011;7640;53.116;6.878;2023-04-25T12:20:35;4.20;;;1.53;;
15082;SDS011;7640;53.116;6.878;2023-04-25T12:23:05;6.87;;;1.60;;
15082;SDS011;7640;53.116;6.878;2023-04-25T12:25:45;5.47;;;1.73;;
15082;SDS011;7640;53.116;6.878;2023-04-25T12:28:16;7.87;;;2.33;;
15082;SDS011;7640;53.116;6.878;2023-04-25T12:31:00;4.73;;;1.40;;
15082;SDS011;7640;53.116;6.878;2023-04-25T12:33:32;5.17;;;1.60;;
15082;SDS011;7640;53.116;6.878;2023-04-25T12:36:02;4.80;;;1.70;;
15082;SDS011;7640;53.116;6.878;2023-04-25T12:38:36;4.83;;;1.57;;
15082;SDS011;7640;53.116;6.878;2023-04-25T12:41:08;5.60;;;1.57;;
15082;SDS011;7640;53.116;6.878;2023-04-25T12:43:47;4.80;;;1.30;;
15082;SDS011;7640;53.116;6.878;2023-04-25T12:46:19;5.43;;;1.57;;
15082;SDS011;7640;53.116;6.878;2023-04-25T12:48:51;5.93;;;1.50;;
15082;SDS011;7640;53.116;6.878;2023-04-25T12:51:37;4.93;;;1.70;;
15082;SDS011;7640;53.116;6.878;2023-04-25T12:54:08;4.17;;;1.40;;
15082;SDS011;7640;53.116;6.878;2023-04-25T12:56:41;5.97;;;1.33;;
15082;SDS011;7640;53.116;6.878;2023-04-25T12:59:10;6.23;;;1.80;;
15082;SDS011;7640;53.116;6.878;2023-04-25T13:01:40;8.17;;;1.87;;
15082;SDS011;7640;53.116;6.878;2023-04-25T13:04:11;5.33;;;1.70;;
15082;SDS011;7640;53.116;6.878;2023-04-25T13:06:43;4.10;;;1.43;;
15082;SDS011;7640;53.116;6.878;2023-04-25T13:09:12;5.90;;;1.17;;
15082;SDS011;7640;53.116;6.878;2023-04-25T13:11:44;6.57;;;1.60;;
15082;SDS011;7640;53.116;6.878;2023-04-25T13:14:15;4.40;;;1.40;;
15082;SDS011;7640;53.116;6.878;2023-04-25T13:16:47;5.43;;;1.70;;
15082;SDS011;7640;53.116;6.878;2023-04-25T13:19:27;4.53;;;1.30;;
15082;SDS011;7640;53.116;6.878;2023-04-25T13:21:57;3.40;;;1.20;;
15082;SDS011;7640;53.116;6.878;2023-04-25T13:24:28;3.93;;;1.20;;
15082;SDS011;7640;53.116;6.878;2023-04-25T13:27:00;4.97;;;1.47;;
15082;SDS011;7640;53.116;6.878;2023-04-25T13:29:31;5.07;;;1.23;;
15082;SDS011;7640;53.116;6.878;2023-04-25T13:32:03;4.80;;;1.30;;
15082;SDS011;7640;53.116;6.878;2023-04-25T13:34:33;5.90;;;1.43;;
15082;SDS011;7640;53.116;6.878;2023-04-25T13:37:05;7.67;;;1.80;;
15082;SDS011;7640;53.116;6.878;2023-04-25T13:39:38;9.17;;;2.30;;
15082;SDS011;7640;53.116;6.878;2023-04-25T13:42:13;5.13;;;1.60;;
15082;SDS011;7640;53.116;6.878;2023-04-25T13:44:44;7.30;;;1.53;;
15082;SDS011;7640;53.116;6.878;2023-04-25T13:47:14;4.80;;;1.63;;
15082;SDS011;7640;53.116;6.878;2023-04-25T13:49:43;5.17;;;1.63;;
15082;SDS011;7640;53.116;6.878;2023-04-25T13:52:13;3.83;;;1.43;;
15082;SDS011;7640;53.116;6.878;2023-04-25T13:54:44;6.27;;;1.53;;
15082;SDS011;7640;53.116;6.878;2023-04-25T13:57:16;6.07;;;1.80;;
15082;SDS011;7640;53.116;6.878;2023-04-25T13:59:46;4.27;;;1.47;;
15082;SDS011;7640;53.116;6.878;2023-04-25T14:02:15;6.20;;;1.60;;
15082;SDS011;7640;53.116;6.878;2023-04-25T14:04:47;5.10;;;1.90;;
15082;SDS011;7640;53.116;6.878;2023-04-25T14:07:26;5.73;;;1.80;;
15082;SDS011;7640;53.116;6.878;2023-04-25T14:09:58;4.80;;;1.63;;
15082;SDS011;7640;53.116;6.878;2023-04-25T14:12:29;3.40;;;1.40;;
15082;SDS011;7640;53.116;6.878;2023-04-25T14:15:00;4.17;;;1.57;;
15082;SDS011;7640;53.116;6.878;2023-04-25T14:17:32;4.73;;;1.70;;
15082;SDS011;7640;53.116;6.878;2023-04-25T14:20:01;6.67;;;1.73;;
15082;SDS011;7640;53.116;6.878;2023-04-25T14:22:32;7.30;;;1.67;;
15082;SDS011;7640;53.116;6.878;2023-04-25T14:25:02;4.37;;;1.37;;
15082;SDS011;7640;53.116;6.878;2023-04-25T14:27:38;3.10;;;1.30;;
15082;SDS011;7640;53.116;6.878;2023-04-25T14:30:08;4.73;;;1.30;;
15082;SDS011;7640;53.116;6.878;2023-04-25T14:32:39;4.27;;;1.40;;
15082;SDS011;7640;53.116;6.878;2023-04-25T14:35:09;6.20;;;1.93;;
15082;SDS011;7640;53.116;6.878;2023-04-25T14:37:39;6.70;;;1.50;;
15082;SDS011;7640;53.116;6.878;2023-04-25T14:40:09;4.57;;;1.33;;
15082;SDS011;7640;53.116;6.878;2023-04-25T14:42:43;4.60;;;1.57;;
15082;SDS011;7640;53.116;6.878;2023-04-25T14:45:14;4.13;;;1.50;;
15082;SDS011;7640;53.116;6.878;2023-04-25T14:47:47;3.57;;;1.33;;
15082;SDS011;7640;53.116;6.878;2023-04-25T14:50:17;6.60;;;1.70;;
15082;SDS011;7640;53.116;6.878;2023-04-25T14:52:50;7.60;;;1.87;;
15082;SDS011;7640;53.116;6.878;2023-04-25T14:55:22;5.63;;;1.83;;
15082;SDS011;7640;53.116;6.878;2023-04-25T14:57:54;4.17;;;1.43;;
15082;SDS011;7640;53.116;6.878;2023-04-25T15:00:25;5.63;;;1.67;;
15082;SDS011;7640;53.116;6.878;2023-04-25T15:02:55;4.27;;;1.60;;
15082;SDS011;7640;53.116;6.878;2023-04-25T15:05:26;3.93;;;1.10;;
15082;SDS011;7640;53.116;6.878;2023-04-25T15:07:56;5.47;;;1.70;;
15082;SDS011;7640;53.116;6.878;2023-04-25T15:10:26;5.03;;;1.20;;
15082;SDS011;7640;53.116;6.878;2023-04-25T15:12:59;6.53;;;1.60;;
15082;SDS011;7640;53.116;6.878;2023-04-25T15:15:32;3.77;;;1.40;;
15082;SDS011;7640;53.116;6.878;2023-04-25T15:18:02;4.77;;;1.20;;
15082;SDS011;7640;53.116;6.878;2023-04-25T15:20:33;3.83;;;1.20;;
15082;SDS011;7640;53.116;6.878;2023-04-25T15:23:06;3.57;;;1.30;;
15082;SDS011;7640;53.116;6.878;2023-04-25T15:25:37;2.93;;;0.97;;
15082;SDS011;7640;53.116;6.878;2023-04-25T15:28:10;2.57;;;1.07;;
15082;SDS011;7640;53.116;6.878;2023-04-25T15:30:41;4.37;;;1.40;;
15082;SDS011;7640;53.116;6.878;2023-04-25T15:33:11;3.00;;;1.30;;